Time;durP1;ratioP1;P1;durP2;ratioP2;P2;SDS_P1;SDS_P2;PMS_P1;PMS_P2;Temp;Humidity;BMP_temperature;BMP_pressure;BME280_temperature;BME280_humidity;BME280_pressure;Samples;Min_cycle;Max_cycle;Signal;HPM_P1;HPM_P2
2021/01/19 00:00:27;;;;;;;21.30;13.68;;;3.50;96.70;;;;;;4825903;29;21113;-72
2021/01/19 00:02:55;;;;;;;20.20;12.60;;;3.40;96.70;;;;;;4828745;29;20435;-71
2021/01/19 00:05:23;;;;;;;18.55;12.93;;;3.50;96.70;;;;;;4827313;29;20046;-72
2021/01/19 00:07:50;;;;;;;19.88;12.27;;;3.50;96.70;;;;;;4835395;29;20045;-72
2021/01/19 00:10:17;;;;;;;22.27;13.65;;;3.50;96.70;;;;;;4848470;29;20525;-72
2021/01/19 00:12:45;;;;;;;19.52;13.02;;;3.40;96.70;;;;;;4832220;29;20050;-72
2021/01/19 00:15:13;;;;;;;19.02;11.85;;;3.40;96.70;;;;;;4840516;29;20545;-71
2021/01/19 00:17:41;;;;;;;19.30;11.52;;;3.40;96.70;;;;;;4833538;29;20429;-72
2021/01/19 00:20:10;;;;;;;16.40;10.32;;;3.50;96.70;;;;;;4827991;29;20046;-71
2021/01/19 00:22:37;;;;;;;18.08;10.45;;;3.50;96.70;;;;;;4828963;29;20053;-72
2021/01/19 00:25:06;;;;;;;15.23;9.52;;;3.50;96.70;;;;;;4832455;29;20049;-72
2021/01/19 00:27:33;;;;;;;15.75;10.43;;;3.50;96.70;;;;;;4829984;29;20042;-72
2021/01/19 00:30:01;;;;;;;17.65;10.82;;;3.40;96.70;;;;;;4827822;29;20070;-71
2021/01/19 00:32:28;;;;;;;14.95;10.48;;;3.40;96.70;;;;;;4829222;29;20074;-72
2021/01/19 00:34:56;;;;;;;13.43;9.38;;;3.40;96.70;;;;;;4831004;29;20062;-72
2021/01/19 00:37:24;;;;;;;13.60;9.68;;;3.30;96.70;;;;;;4829505;29;20049;-72
2021/01/19 00:39:51;;;;;;;12.75;8.63;;;3.40;96.70;;;;;;4832421;29;20529;-72
2021/01/19 00:42:18;;;;;;;13.63;9.07;;;3.30;96.70;;;;;;4827906;29;20038;-72
2021/01/19 00:44:48;;;;;;;13.50;7.90;;;3.20;96.70;;;;;;4825291;29;20098;-72
2021/01/19 00:47:15;;;;;;;10.80;7.18;;;3.20;96.70;;;;;;4828002;29;20141;-71
2021/01/19 00:49:42;;;;;;;13.65;8.00;;;3.20;96.70;;;;;;4829296;29;20125;-72
2021/01/19 00:52:09;;;;;;;12.10;7.82;;;3.10;96.70;;;;;;4830704;29;20042;-72
2021/01/19 00:54:38;;;;;;;12.13;7.95;;;3.10;96.70;;;;;;4829829;29;20049;-71
2021/01/19 00:57:08;;;;;;;13.02;8.55;;;3.10;96.70;;;;;;4823159;29;20054;-71
2021/01/19 00:59:37;;;;;;;13.13;8.82;;;3.20;96.70;;;;;;4831789;29;20041;-72
2021/01/19 01:02:04;;;;;;;15.55;9.88;;;3.20;96.70;;;;;;4831019;29;20046;-72
2021/01/19 01:04:31;;;;;;;14.27;8.98;;;3.10;96.70;;;;;;4827447;29;20624;-72
2021/01/19 01:06:58;;;;;;;12.82;8.32;;;3.00;96.70;;;;;;4828117;29;20129;-72
2021/01/19 01:09:25;;;;;;;14.15;9.32;;;3.00;96.70;;;;;;4836021;29;20042;-71
2021/01/19 01:11:53;;;;;;;13.50;9.07;;;3.10;96.70;;;;;;4834848;29;20089;-71
2021/01/19 01:14:20;;;;;;;14.38;9.20;;;3.20;96.70;;;;;;4833237;29;20062;-72
2021/01/19 01:16:47;;;;;;;16.67;9.43;;;3.20;96.70;;;;;;4828005;29;20543;-72
2021/01/19 01:19:14;;;;;;;16.13;10.00;;;3.20;96.70;;;;;;4827604;29;20049;-72
2021/01/19 01:21:42;;;;;;;15.98;10.82;;;3.20;96.70;;;;;;4817524;29;20429;-72
2021/01/19 01:24:09;;;;;;;17.85;10.05;;;3.20;96.70;;;;;;4834213;29;20466;-72
2021/01/19 01:26:37;;;;;;;17.92;9.60;;;3.10;96.70;;;;;;4842011;29;20394;-72
2021/01/19 01:29:05;;;;;;;13.85;9.52;;;3.10;96.70;;;;;;4837983;29;20053;-72
2021/01/19 01:31:33;;;;;;;14.60;9.48;;;3.10;96.70;;;;;;4834707;29;20057;-72
2021/01/19 01:34:00;;;;;;;15.13;9.32;;;3.20;96.70;;;;;;4831296;29;20113;-72
2021/01/19 01:36:27;;;;;;;16.58;9.05;;;3.10;96.70;;;;;;4834222;29;20049;-72
2021/01/19 01:38:54;;;;;;;12.10;8.82;;;3.00;96.70;;;;;;4830150;29;20053;-73
2021/01/19 01:41:23;;;;;;;12.77;8.68;;;2.90;96.70;;;;;;4832150;29;20046;-73
2021/01/19 01:43:50;;;;;;;13.45;9.13;;;3.00;96.70;;;;;;4847944;29;20046;-72
2021/01/19 01:46:18;;;;;;;14.32;9.43;;;3.00;96.70;;;;;;4838399;29;20046;-72
2021/01/19 01:48:48;;;;;;;13.27;8.88;;;2.90;96.70;;;;;;4831382;29;20050;-71
2021/01/19 01:51:15;;;;;;;13.77;9.02;;;2.90;96.70;;;;;;4844975;29;20048;-73
2021/01/19 01:53:43;;;;;;;13.32;8.35;;;2.90;96.70;;;;;;4829808;29;20066;-72
2021/01/19 01:56:11;;;;;;;13.88;8.35;;;3.00;96.70;;;;;;4832010;29;20529;-73
2021/01/19 01:58:39;;;;;;;14.82;8.60;;;2.80;96.70;;;;;;4830766;29;20488;-72
2021/01/19 02:01:06;;;;;;;13.38;9.15;;;2.70;96.70;;;;;;4844899;29;20425;-71
2021/01/19 02:03:34;;;;;;;14.57;8.70;;;2.70;96.70;;;;;;4827445;29;20085;-71
2021/01/19 02:06:02;;;;;;;14.32;9.77;;;2.70;96.70;;;;;;4830616;29;20049;-71
2021/01/19 02:08:41;;;;;;;12.95;8.48;;;2.80;96.70;;;;;;4831835;29;20046;-72
2021/01/19 02:11:17;;;;;;;14.80;9.05;;;2.70;96.70;;;;;;4833181;29;20045;-72
2021/01/19 02:13:57;;;;;;;13.85;9.00;;;2.70;96.70;;;;;;4843987;29;20058;-72
2021/01/19 02:16:34;;;;;;;11.98;8.50;;;2.70;96.70;;;;;;4828009;29;20081;-72
2021/01/19 02:19:15;;;;;;;13.02;8.10;;;2.80;96.70;;;;;;4842158;29;20093;-73
2021/01/19 02:22:07;;;;;;;11.75;8.93;;;2.70;96.70;;;;;;4827947;29;20126;-72
2021/01/19 02:24:38;;;;;;;12.35;8.63;;;2.80;96.70;;;;;;4847486;29;20107;-72
2021/01/19 02:27:21;;;;;;;11.40;8.32;;;2.80;96.70;;;;;;4833312;29;20501;-72
2021/01/19 02:30:06;;;;;;;13.70;8.88;;;2.70;96.70;;;;;;4832192;29;20042;-72
2021/01/19 02:32:42;;;;;;;14.55;8.32;;;2.70;96.70;;;;;;4841265;29;20095;-72
2021/01/19 02:35:14;;;;;;;14.05;8.25;;;2.70;96.70;;;;;;4826721;29;20553;-72
2021/01/19 02:37:54;;;;;;;11.52;8.25;;;2.70;96.70;;;;;;4830285;29;20157;-72
2021/01/19 02:40:21;;;;;;;13.82;8.23;;;2.70;96.70;;;;;;4833527;29;20038;-71
2021/01/19 02:42:58;;;;;;;13.48;8.15;;;2.80;96.70;;;;;;4833864;29;20042;-72
2021/01/19 02:45:25;;;;;;;13.10;9.02;;;2.80;96.70;;;;;;4830159;29;20502;-72
2021/01/19 02:47:53;;;;;;;11.68;8.07;;;2.80;96.70;;;;;;4831291;29;20528;-72
2021/01/19 02:50:21;;;;;;;11.48;8.57;;;2.70;96.70;;;;;;4834668;29;20603;-72
2021/01/19 02:52:50;;;;;;;15.15;8.50;;;2.70;96.70;;;;;;4830784;29;20963;-72
2021/01/19 02:55:18;;;;;;;10.88;8.50;;;2.70;96.70;;;;;;4832020;29;20130;-72
2021/01/19 02:58:10;;;;;;;11.75;8.05;;;2.70;96.70;;;;;;4832672;29;20628;-72
2021/01/19 03:00:47;;;;;;;11.80;8.00;;;2.60;96.70;;;;;;4831009;29;20077;-72
2021/01/19 03:03:16;;;;;;;10.98;8.25;;;2.60;96.70;;;;;;4831461;29;20049;-72
2021/01/19 03:05:44;;;;;;;10.88;7.75;;;2.60;96.70;;;;;;4826041;29;20521;-71
2021/01/19 03:08:14;;;;;;;12.38;8.48;;;2.60;96.70;;;;;;4831822;29;20045;-71
2021/01/19 03:10:42;;;;;;;10.88;7.50;;;2.60;96.70;;;;;;4812241;29;20069;-72
2021/01/19 03:13:13;;;;;;;12.30;7.72;;;2.50;96.70;;;;;;4834794;29;20456;-72
2021/01/19 03:15:41;;;;;;;13.02;8.07;;;2.50;96.70;;;;;;4832287;29;20054;-72
2021/01/19 03:18:10;;;;;;;12.55;7.95;;;2.60;96.70;;;;;;4832735;29;20045;-73
2021/01/19 03:20:38;;;;;;;11.15;7.90;;;2.60;96.70;;;;;;4842723;29;20137;-72
2021/01/19 03:23:05;;;;;;;11.95;8.38;;;2.70;96.70;;;;;;4836172;29;20045;-72
2021/01/19 03:25:33;;;;;;;11.25;7.63;;;2.70;96.70;;;;;;4830226;29;20142;-73
2021/01/19 03:28:00;;;;;;;11.73;8.25;;;2.70;96.70;;;;;;4825803;29;20057;-72
2021/01/19 03:30:27;;;;;;;10.35;7.47;;;2.80;96.70;;;;;;4832662;29;20114;-71
2021/01/19 03:32:54;;;;;;;10.90;7.38;;;2.90;96.70;;;;;;4828790;29;20056;-72
2021/01/19 03:35:21;;;;;;;12.40;7.97;;;2.90;96.70;;;;;;4831764;29;20053;-72
2021/01/19 03:37:49;;;;;;;10.52;7.60;;;2.90;96.70;;;;;;4833042;29;20509;-72
2021/01/19 03:40:16;;;;;;;11.20;7.65;;;2.90;96.70;;;;;;4831115;29;20038;-72
2021/01/19 03:42:44;;;;;;;12.38;8.15;;;2.90;96.70;;;;;;4832062;29;20532;-72
2021/01/19 03:45:12;;;;;;;10.88;8.23;;;2.90;96.70;;;;;;4827222;29;20132;-72
2021/01/19 03:47:39;;;;;;;11.05;7.80;;;2.90;96.70;;;;;;4833763;29;20052;-72
2021/01/19 03:50:08;;;;;;;10.20;7.57;;;2.90;96.70;;;;;;4831622;29;20077;-73
2021/01/19 03:52:35;;;;;;;12.20;7.57;;;2.90;96.70;;;;;;4827714;29;20593;-72
2021/01/19 03:55:04;;;;;;;11.27;7.78;;;2.90;96.70;;;;;;4828503;29;20540;-72
2021/01/19 03:57:31;;;;;;;13.15;8.30;;;2.80;96.70;;;;;;4830414;29;20048;-71
2021/01/19 03:59:59;;;;;;;10.57;7.53;;;2.90;96.70;;;;;;4830474;29;20484;-72
2021/01/19 04:02:26;;;;;;;10.05;7.43;;;2.90;96.70;;;;;;4832793;29;20076;-72
2021/01/19 04:04:53;;;;;;;11.23;7.70;;;2.90;96.70;;;;;;4828428;29;20277;-72
2021/01/19 04:07:20;;;;;;;10.93;7.60;;;2.90;96.70;;;;;;4839346;29;20045;-73
2021/01/19 04:09:47;;;;;;;13.90;8.27;;;3.00;96.70;;;;;;4827640;29;20049;-72
2021/01/19 04:12:15;;;;;;;14.77;9.00;;;2.90;96.70;;;;;;4829328;29;20513;-72
2021/01/19 04:14:42;;;;;;;11.05;7.30;;;2.80;96.70;;;;;;4846305;29;20049;-72
2021/01/19 04:17:09;;;;;;;13.32;8.60;;;2.80;96.70;;;;;;4829390;29;20061;-71
2021/01/19 04:19:36;;;;;;;11.90;7.97;;;2.90;96.70;;;;;;4828482;29;20088;-71
2021/01/19 04:22:04;;;;;;;11.73;7.72;;;2.90;96.70;;;;;;4832387;29;20156;-71
2021/01/19 04:24:31;;;;;;;11.18;7.80;;;2.90;96.70;;;;;;4832862;29;20048;-72
2021/01/19 04:26:58;;;;;;;15.10;8.85;;;2.90;96.70;;;;;;4833292;29;20407;-71
2021/01/19 04:29:26;;;;;;;14.55;7.45;;;2.90;96.70;;;;;;4830897;29;20528;-72
2021/01/19 04:31:53;;;;;;;12.43;7.88;;;2.80;96.70;;;;;;4831294;29;21010;-71
2021/01/19 04:34:20;;;;;;;11.73;8.05;;;2.80;96.70;;;;;;4833094;29;20480;-72
2021/01/19 04:36:47;;;;;;;13.55;8.10;;;2.80;96.70;;;;;;4835443;29;20555;-71
2021/01/19 04:39:14;;;;;;;10.80;7.55;;;2.70;96.70;;;;;;4827308;29;20050;-72
2021/01/19 04:41:46;;;;;;;12.60;8.05;;;2.60;96.70;;;;;;4832975;29;20042;-72
2021/01/19 04:44:15;;;;;;;12.70;8.25;;;2.60;96.70;;;;;;4813658;29;20049;-71
2021/01/19 04:46:45;;;;;;;12.98;8.68;;;2.60;96.70;;;;;;4831045;29;20042;-72
2021/01/19 04:49:12;;;;;;;11.75;8.50;;;2.60;96.70;;;;;;4832880;29;20136;-72
2021/01/19 04:51:42;;;;;;;12.35;7.72;;;2.60;96.70;;;;;;4833058;29;20037;-72
2021/01/19 04:54:10;;;;;;;11.15;7.85;;;2.70;96.70;;;;;;4832590;29;20653;-72
2021/01/19 04:56:39;;;;;;;11.32;8.27;;;2.60;96.70;;;;;;4835001;29;20058;-72
2021/01/19 04:59:12;;;;;;;10.45;7.70;;;2.70;96.70;;;;;;4834242;29;20046;-71
2021/01/19 05:02:04;;;;;;;9.25;7.68;;;2.70;96.70;;;;;;4831437;29;20168;-72
2021/01/19 05:04:46;;;;;;;11.30;6.95;;;2.70;96.70;;;;;;4831430;29;20046;-72
2021/01/19 05:07:30;;;;;;;12.40;7.55;;;2.70;96.70;;;;;;4833685;29;20404;-71
2021/01/19 05:10:08;;;;;;;10.45;7.35;;;2.70;96.70;;;;;;4830586;29;20058;-72
2021/01/19 05:12:41;;;;;;;10.05;7.15;;;2.60;96.70;;;;;;4845398;29;20510;-71
2021/01/19 05:15:09;;;;;;;8.38;6.78;;;2.60;96.70;;;;;;4830951;29;20058;-72
2021/01/19 05:17:39;;;;;;;9.73;7.35;;;2.50;96.70;;;;;;4848579;29;20047;-73
2021/01/19 05:20:08;;;;;;;9.98;7.15;;;2.60;96.70;;;;;;4829512;29;20045;-72
2021/01/19 05:22:36;;;;;;;10.23;6.75;;;2.60;96.70;;;;;;4831975;29;20666;-72
2021/01/19 05:25:04;;;;;;;10.60;7.60;;;2.60;96.70;;;;;;4833646;29;20168;-73
2021/01/19 05:27:31;;;;;;;10.00;7.20;;;2.60;96.70;;;;;;4831414;29;20046;-72
2021/01/19 05:30:00;;;;;;;12.85;8.02;;;2.70;96.70;;;;;;4834008;29;20053;-72
2021/01/19 05:32:36;;;;;;;12.63;8.18;;;2.70;96.70;;;;;;4836497;29;20042;-73
2021/01/19 05:35:13;;;;;;;12.57;8.17;;;2.70;96.70;;;;;;4828505;29;20049;-72
2021/01/19 05:37:54;;;;;;;11.07;7.85;;;2.80;96.70;;;;;;4830423;29;20342;-72
2021/01/19 05:40:21;;;;;;;12.38;8.00;;;2.70;96.70;;;;;;4831585;29;20073;-72
2021/01/19 05:42:48;;;;;;;13.60;8.55;;;2.70;96.70;;;;;;4832092;29;20043;-72
2021/01/19 05:45:15;;;;;;;12.27;8.38;;;2.80;96.70;;;;;;4832269;29;20062;-72
2021/01/19 05:47:44;;;;;;;13.95;9.35;;;2.80;96.70;;;;;;4833945;29;20042;-71
2021/01/19 05:50:12;;;;;;;13.02;8.57;;;2.70;96.70;;;;;;4847711;29;20141;-72
2021/01/19 05:52:42;;;;;;;15.45;9.20;;;2.70;96.70;;;;;;4827857;29;20608;-72
2021/01/19 05:55:10;;;;;;;11.45;8.70;;;2.70;96.70;;;;;;4833172;29;20274;-73
2021/01/19 05:57:37;;;;;;;10.63;8.25;;;2.60;96.70;;;;;;4849475;29;20300;-72
2021/01/19 06:00:06;;;;;;;12.95;8.43;;;2.60;96.70;;;;;;4829888;29;20046;-73
2021/01/19 06:02:41;;;;;;;13.80;9.07;;;2.60;96.70;;;;;;4835648;29;20046;-72
2021/01/19 06:05:10;;;;;;;11.38;8.32;;;2.50;96.70;;;;;;4845277;29;20048;-72
2021/01/19 06:07:39;;;;;;;12.68;8.82;;;2.50;96.70;;;;;;4832936;29;20228;-72
2021/01/19 06:10:09;;;;;;;12.68;8.45;;;2.60;96.70;;;;;;4816200;29;20553;-72
2021/01/19 06:12:36;;;;;;;14.43;8.90;;;2.60;96.70;;;;;;4831918;29;20574;-72
2021/01/19 06:15:05;;;;;;;11.57;8.50;;;2.60;96.70;;;;;;4812374;29;20058;-72
2021/01/19 06:17:32;;;;;;;14.73;8.68;;;2.50;96.70;;;;;;4832119;29;20048;-73
2021/01/19 06:20:00;;;;;;;13.63;7.90;;;2.40;96.70;;;;;;4813384;29;20054;-73
2021/01/19 06:22:28;;;;;;;11.98;8.57;;;2.40;96.70;;;;;;4845176;29;20496;-73
2021/01/19 06:24:57;;;;;;;14.90;8.65;;;2.40;96.70;;;;;;4835617;29;20540;-73
2021/01/19 06:27:27;;;;;;;10.88;8.15;;;2.40;96.70;;;;;;4825777;29;20104;-72
2021/01/19 06:30:09;;;;;;;10.77;8.20;;;2.40;96.70;;;;;;4830514;29;20572;-72
2021/01/19 06:32:44;;;;;;;14.88;8.50;;;2.40;96.70;;;;;;4827873;29;20076;-72
2021/01/19 06:35:15;;;;;;;13.15;8.70;;;2.40;96.70;;;;;;4830443;29;20054;-72
2021/01/19 06:37:43;;;;;;;10.70;7.65;;;2.30;96.70;;;;;;4830559;29;20134;-72
2021/01/19 06:40:14;;;;;;;14.52;8.48;;;2.40;96.70;;;;;;4846124;29;20517;-72
2021/01/19 06:42:42;;;;;;;13.35;8.13;;;2.40;96.70;;;;;;4831177;29;20861;-70
2021/01/19 06:45:11;;;;;;;14.30;8.93;;;2.30;96.70;;;;;;4814758;29;20057;-70
2021/01/19 06:47:46;;;;;;;13.75;8.88;;;2.40;96.70;;;;;;4830048;29;20042;-72
2021/01/19 06:50:14;;;;;;;16.88;10.18;;;2.40;96.70;;;;;;4833404;29;20141;-73
2021/01/19 06:52:42;;;;;;;12.77;9.27;;;2.30;96.70;;;;;;4831117;29;20046;-71
2021/01/19 06:55:21;;;;;;;12.15;8.77;;;2.30;96.70;;;;;;4830803;29;20054;-72
2021/01/19 06:58:11;;;;;;;12.15;8.73;;;2.30;96.70;;;;;;4832087;29;20042;-71
2021/01/19 07:00:40;;;;;;;14.75;9.18;;;2.20;96.70;;;;;;4831077;29;20037;-72
2021/01/19 07:03:18;;;;;;;11.90;8.80;;;2.20;96.70;;;;;;4832233;29;20051;-73
2021/01/19 07:05:51;;;;;;;11.75;8.82;;;2.30;96.70;;;;;;4844128;29;20165;-70
2021/01/19 07:08:40;;;;;;;11.35;8.80;;;2.40;96.70;;;;;;4833440;29;20097;-72
2021/01/19 07:11:37;;;;;;;12.88;8.77;;;2.40;96.70;;;;;;4831923;29;20042;-73
2021/01/19 07:14:11;;;;;;;14.65;8.93;;;2.50;96.70;;;;;;4846397;29;20081;-73
2021/01/19 07:16:50;;;;;;;13.38;8.50;;;2.70;96.70;;;;;;4826522;29;20049;-72
2021/01/19 07:19:19;;;;;;;12.95;8.90;;;2.70;96.70;;;;;;4832489;29;20080;-72
2021/01/19 07:22:06;;;;;;;13.68;8.40;;;2.80;96.70;;;;;;4827907;29;20412;-71
2021/01/19 07:24:39;;;;;;;12.30;8.95;;;2.80;96.70;;;;;;4847431;29;20053;-71
2021/01/19 07:27:09;;;;;;;14.73;9.02;;;2.80;96.70;;;;;;4834307;29;20049;-72
2021/01/19 07:29:38;;;;;;;13.60;9.27;;;2.80;96.70;;;;;;4827266;29;20157;-72
2021/01/19 07:32:09;;;;;;;14.50;8.40;;;2.80;96.70;;;;;;4830688;29;20650;-71
2021/01/19 07:34:38;;;;;;;15.27;9.32;;;2.90;96.70;;;;;;4814639;29;20049;-72
2021/01/19 07:37:06;;;;;;;14.85;8.98;;;2.90;96.70;;;;;;4834310;29;20125;-71
2021/01/19 07:39:34;;;;;;;12.52;8.57;;;2.90;96.70;;;;;;4831725;29;20078;-71
2021/01/19 07:42:18;;;;;;;12.95;9.00;;;3.00;96.70;;;;;;4823029;29;20050;-71
2021/01/19 07:44:55;;;;;;;13.25;9.40;;;3.00;96.70;;;;;;4843242;29;20053;-71
2021/01/19 07:47:33;;;;;;;15.82;8.85;;;3.10;96.70;;;;;;4832940;29;20151;-71
2021/01/19 07:50:04;;;;;;;16.17;10.02;;;3.20;96.70;;;;;;4829351;29;20060;-72
2021/01/19 07:52:37;;;;;;;14.48;9.80;;;3.20;96.70;;;;;;4832813;29;20106;-71
2021/01/19 07:55:14;;;;;;;15.52;9.43;;;3.20;96.70;;;;;;4829704;29;20484;-71
2021/01/19 07:57:48;;;;;;;16.05;9.75;;;3.20;96.70;;;;;;4831572;29;20527;-70
2021/01/19 08:00:23;;;;;;;15.45;10.02;;;3.30;96.70;;;;;;4827753;29;20046;-71
2021/01/19 08:03:02;;;;;;;17.95;10.38;;;3.30;96.70;;;;;;4833947;29;20070;-70
2021/01/19 08:05:29;;;;;;;12.80;9.63;;;3.40;96.70;;;;;;4829545;29;20536;-71
2021/01/19 08:07:57;;;;;;;13.45;9.10;;;3.40;96.70;;;;;;4831566;29;20076;-70
2021/01/19 08:10:27;;;;;;;14.07;9.73;;;3.60;96.70;;;;;;4831550;29;20453;-70
2021/01/19 08:12:57;;;;;;;16.15;10.02;;;3.60;96.70;;;;;;4830572;29;20065;-71
2021/01/19 08:15:27;;;;;;;17.55;11.80;;;3.70;96.70;;;;;;4827544;29;20087;-71
2021/01/19 08:17:56;;;;;;;14.55;10.80;;;3.70;96.70;;;;;;4825445;29;20053;-73
2021/01/19 08:20:28;;;;;;;15.52;11.73;;;3.70;96.70;;;;;;4815596;29;20153;-71
2021/01/19 08:23:08;;;;;;;17.17;11.43;;;3.70;96.70;;;;;;4843747;29;20114;-70
2021/01/19 08:25:36;;;;;;;16.73;11.93;;;3.80;96.70;;;;;;4831573;29;20046;-72
2021/01/19 08:28:05;;;;;;;15.48;11.30;;;3.80;96.70;;;;;;4809610;29;20125;-71
2021/01/19 08:30:33;;;;;;;17.70;11.73;;;3.70;96.70;;;;;;4826402;29;20132;-71
2021/01/19 08:33:01;;;;;;;16.77;11.93;;;3.90;96.70;;;;;;4828517;29;20046;-71
2021/01/19 08:35:30;;;;;;;17.85;12.90;;;3.90;96.70;;;;;;4830600;29;20046;-71
2021/01/19 08:37:59;;;;;;;16.40;11.30;;;4.00;96.70;;;;;;4827080;29;20699;-71
2021/01/19 08:40:28;;;;;;;17.10;12.48;;;4.00;96.70;;;;;;4828150;29;20041;-72
2021/01/19 08:42:56;;;;;;;18.08;13.05;;;4.00;96.70;;;;;;4831454;29;20198;-71
2021/01/19 08:45:27;;;;;;;17.52;12.65;;;4.00;96.70;;;;;;4815444;29;20050;-71
2021/01/19 08:47:56;;;;;;;17.33;11.48;;;4.00;96.70;;;;;;4831063;29;20417;-71
2021/01/19 08:50:25;;;;;;;13.00;10.82;;;4.00;96.70;;;;;;4829802;29;20491;-72
2021/01/19 08:52:53;;;;;;;14.43;10.88;;;4.10;96.70;;;;;;4828796;29;20044;-71
2021/01/19 08:55:22;;;;;;;16.42;11.38;;;4.10;96.70;;;;;;4829886;29;20046;-71
2021/01/19 08:57:55;;;;;;;17.10;11.10;;;4.20;96.70;;;;;;4831068;29;20615;-70
2021/01/19 09:00:43;;;;;;;17.23;11.00;;;4.30;96.70;;;;;;4818499;29;20053;-72
2021/01/19 09:03:13;;;;;;;18.88;11.52;;;4.50;96.70;;;;;;4816557;29;20475;-72
2021/01/19 09:06:00;;;;;;;18.00;11.82;;;4.50;96.70;;;;;;4825169;29;20106;-71
2021/01/19 09:08:28;;;;;;;18.17;13.27;;;4.70;96.70;;;;;;4832616;29;20050;-70
2021/01/19 09:11:06;;;;;;;18.52;12.43;;;4.80;96.70;;;;;;4824615;29;20053;-71
2021/01/19 09:13:48;;;;;;;16.13;11.85;;;4.80;96.70;;;;;;4828399;29;20060;-71
2021/01/19 09:16:23;;;;;;;19.23;11.88;;;4.80;96.70;;;;;;4830422;29;20416;-72
2021/01/19 09:18:53;;;;;;;16.77;11.47;;;4.80;96.70;;;;;;4830313;29;20045;-71
2021/01/19 09:21:21;;;;;;;17.00;12.07;;;4.80;96.70;;;;;;4831113;29;20042;-71
2021/01/19 09:23:49;;;;;;;18.52;11.93;;;4.90;96.70;;;;;;4828510;29;20133;-72
2021/01/19 09:26:17;;;;;;;20.05;12.35;;;4.90;96.70;;;;;;4826147;29;20066;-71
2021/01/19 09:28:44;;;;;;;17.38;12.23;;;4.90;96.70;;;;;;4831223;29;20824;-71
2021/01/19 09:31:15;;;;;;;16.38;12.45;;;5.00;96.70;;;;;;4835716;29;20104;-71
2021/01/19 09:33:45;;;;;;;17.95;11.77;;;5.20;96.70;;;;;;4835784;29;20101;-71
2021/01/19 09:36:13;;;;;;;17.27;11.38;;;5.30;96.70;;;;;;4829579;29;20064;-71
2021/01/19 09:38:42;;;;;;;17.25;12.10;;;5.50;96.70;;;;;;4830865;29;20479;-71
2021/01/19 09:41:14;;;;;;;18.75;11.23;;;5.60;96.70;;;;;;4835487;29;20544;-72
2021/01/19 09:43:47;;;;;;;18.63;12.07;;;5.60;96.70;;;;;;4832905;29;20064;-71
2021/01/19 09:46:17;;;;;;;19.70;12.70;;;5.70;96.70;;;;;;4831731;29;20144;-71
2021/01/19 09:48:48;;;;;;;15.38;10.98;;;5.80;96.70;;;;;;4832812;29;20055;-72
2021/01/19 09:51:23;;;;;;;17.50;11.93;;;5.80;96.70;;;;;;4831417;29;20587;-72
2021/01/19 09:53:53;;;;;;;17.90;12.10;;;5.90;96.70;;;;;;4831376;29;20054;-72
2021/01/19 09:56:21;;;;;;;16.10;11.80;;;5.90;96.70;;;;;;4822322;29;20064;-71
2021/01/19 09:58:59;;;;;;;18.85;12.20;;;6.00;96.70;;;;;;4831708;29;20070;-71
2021/01/19 10:01:26;;;;;;;15.23;11.60;;;6.00;96.70;;;;;;4828665;29;20054;-71
2021/01/19 10:03:55;;;;;;;16.60;12.25;;;6.10;96.70;;;;;;4833989;29;20061;-71
2021/01/19 10:06:25;;;;;;;19.00;12.75;;;6.10;96.70;;;;;;4830676;29;20527;-72
2021/01/19 10:08:53;;;;;;;17.90;12.80;;;6.20;96.70;;;;;;4830484;29;20050;-72
2021/01/19 10:11:29;;;;;;;18.45;12.60;;;6.30;96.70;;;;;;4832995;29;20094;-72
2021/01/19 10:14:08;;;;;;;18.85;12.75;;;6.30;96.70;;;;;;4826184;29;20067;-71
2021/01/19 10:16:40;;;;;;;18.00;12.77;;;6.50;96.70;;;;;;4831638;29;20054;-71
2021/01/19 10:19:17;;;;;;;15.38;11.70;;;6.40;96.70;;;;;;4834132;29;20046;-71
2021/01/19 10:21:49;;;;;;;18.40;13.23;;;6.40;96.70;;;;;;4832546;29;20053;-72
2021/01/19 10:24:16;;;;;;;16.92;12.30;;;6.30;96.70;;;;;;4829629;29;20494;-71
2021/01/19 10:27:00;;;;;;;18.02;11.90;;;6.30;96.70;;;;;;4833459;29;20042;-71
2021/01/19 10:29:29;;;;;;;18.65;13.02;;;6.30;96.70;;;;;;4831654;29;20180;-71
2021/01/19 10:31:59;;;;;;;17.38;12.75;;;6.40;96.70;;;;;;4828741;29;20126;-71
2021/01/19 10:34:29;;;;;;;17.05;12.45;;;6.40;96.70;;;;;;4836772;29;20046;-71
2021/01/19 10:36:58;;;;;;;16.60;11.85;;;6.70;96.70;;;;;;4838668;29;20436;-71
2021/01/19 10:39:26;;;;;;;15.27;11.80;;;7.00;96.70;;;;;;4833168;29;20523;-71
2021/01/19 10:41:55;;;;;;;16.15;11.70;;;7.20;96.70;;;;;;4828586;29;20054;-71
2021/01/19 10:44:24;;;;;;;20.83;12.68;;;7.20;96.70;;;;;;4830954;29;20045;-72
2021/01/19 10:47:00;;;;;;;14.68;11.35;;;7.40;96.70;;;;;;4816550;29;20131;-70
2021/01/19 10:49:30;;;;;;;17.65;11.90;;;7.60;96.70;;;;;;4831398;29;20169;-71
2021/01/19 10:51:59;;;;;;;14.60;11.00;;;7.80;96.70;;;;;;4833019;29;20294;-71
2021/01/19 10:54:26;;;;;;;15.40;11.55;;;7.80;96.70;;;;;;4835547;29;20318;-72
2021/01/19 10:57:03;;;;;;;14.85;11.80;;;7.80;96.70;;;;;;4832697;29;20084;-73
2021/01/19 10:59:31;;;;;;;16.27;12.38;;;7.80;96.70;;;;;;4810516;29;20081;-72
2021/01/19 11:02:02;;;;;;;16.23;11.90;;;8.00;96.70;;;;;;4829707;29;20038;-72
2021/01/19 11:04:32;;;;;;;16.40;11.82;;;8.00;96.70;;;;;;4817058;29;20504;-72
2021/01/19 11:07:01;;;;;;;16.33;11.48;;;8.00;96.70;;;;;;4827425;29;20137;-72
2021/01/19 11:09:28;;;;;;;15.00;11.07;;;8.10;96.70;;;;;;4831275;29;20046;-71
2021/01/19 11:11:55;;;;;;;14.35;10.57;;;8.10;96.70;;;;;;4834253;29;20050;-72
2021/01/19 11:14:23;;;;;;;15.75;12.15;;;8.10;96.70;;;;;;4833125;29;20107;-72
2021/01/19 11:16:50;;;;;;;15.65;10.73;;;8.00;96.70;;;;;;4842816;29;20139;-72
2021/01/19 11:19:17;;;;;;;15.20;10.75;;;8.00;96.70;;;;;;4831855;29;20053;-72
2021/01/19 11:21:46;;;;;;;12.55;9.70;;;7.90;96.70;;;;;;4830713;29;20532;-72
2021/01/19 11:24:13;;;;;;;13.90;10.32;;;7.90;96.70;;;;;;4831429;29;20091;-72
2021/01/19 11:26:42;;;;;;;15.60;9.75;;;7.80;96.70;;;;;;4836245;29;20443;-71
2021/01/19 11:29:28;;;;;;;14.68;10.27;;;7.80;96.70;;;;;;4834689;29;20050;-70
2021/01/19 11:31:56;;;;;;;12.65;9.57;;;7.80;96.70;;;;;;4846622;29;20101;-72
2021/01/19 11:34:23;;;;;;;26.65;18.15;;;7.80;96.70;;;;;;4828519;29;20072;-72
2021/01/19 11:36:51;;;;;;;20.30;14.45;;;7.90;96.70;;;;;;4831200;29;20046;-73
2021/01/19 11:39:19;;;;;;;15.68;11.27;;;7.80;96.70;;;;;;4828379;29;20057;-71
2021/01/19 11:41:47;;;;;;;15.35;11.23;;;7.80;96.70;;;;;;4812783;29;20091;-71
2021/01/19 11:44:17;;;;;;;19.58;12.48;;;7.80;96.70;;;;;;4827344;29;20462;-72
2021/01/19 11:46:44;;;;;;;17.83;12.63;;;7.80;96.70;;;;;;4818497;29;20076;-72
2021/01/19 11:49:12;;;;;;;17.70;11.65;;;7.70;96.70;;;;;;4844892;29;20053;-72
2021/01/19 11:51:40;;;;;;;14.27;10.55;;;7.70;96.70;;;;;;4827639;29;20046;-72
2021/01/19 11:54:09;;;;;;;14.65;10.93;;;7.70;96.70;;;;;;4811872;29;20122;-72
2021/01/19 11:56:38;;;;;;;14.65;9.80;;;7.70;96.70;;;;;;4844531;29;20050;-72
2021/01/19 11:59:07;;;;;;;14.52;9.75;;;7.70;96.70;;;;;;4829765;29;20054;-72
2021/01/19 12:01:35;;;;;;;16.60;12.45;;;7.70;96.70;;;;;;4828801;29;20049;-72
2021/01/19 12:04:04;;;;;;;17.65;14.05;;;7.70;96.70;;;;;;4828850;29;20046;-73
2021/01/19 12:06:33;;;;;;;20.80;14.30;;;7.70;96.70;;;;;;4830359;29;20505;-73
2021/01/19 12:09:01;;;;;;;22.83;15.45;;;7.70;96.70;;;;;;4830173;29;20071;-73
2021/01/19 12:11:30;;;;;;;24.92;15.70;;;7.70;96.70;;;;;;4826240;29;20056;-73
2021/01/19 12:13:57;;;;;;;21.50;15.48;;;7.70;96.70;;;;;;4821860;29;20155;-74
2021/01/19 12:16:25;;;;;;;24.52;15.68;;;7.70;96.70;;;;;;4827504;29;20041;-74
2021/01/19 12:18:52;;;;;;;22.65;16.67;;;7.60;96.70;;;;;;4827503;29;20045;-74
2021/01/19 12:21:25;;;;;;;22.60;15.77;;;7.70;96.70;;;;;;4817183;29;20130;-74
2021/01/19 12:23:53;;;;;;;21.73;15.20;;;7.70;96.70;;;;;;4839479;29;20042;-73
2021/01/19 12:26:20;;;;;;;32.90;22.40;;;7.70;96.70;;;;;;4828302;29;20071;-73
2021/01/19 12:28:49;;;;;;;20.65;15.57;;;7.70;96.70;;;;;;4828275;29;20519;-72
2021/01/19 12:31:17;;;;;;;24.60;15.52;;;7.80;96.70;;;;;;4827272;29;20137;-73
2021/01/19 12:33:44;;;;;;;20.77;14.93;;;7.80;96.70;;;;;;4827634;29;20038;-74
2021/01/19 12:36:12;;;;;;;19.38;14.57;;;7.70;96.70;;;;;;4830239;29;20061;-73
2021/01/19 12:38:40;;;;;;;20.85;14.38;;;7.70;96.70;;;;;;4826740;29;20046;-73
2021/01/19 12:41:08;;;;;;;18.25;13.25;;;7.70;96.70;;;;;;4830989;29;20374;-74
2021/01/19 12:43:35;;;;;;;21.00;16.65;;;7.70;96.70;;;;;;4830741;29;20580;-74
2021/01/19 12:46:04;;;;;;;27.85;19.17;;;7.60;96.70;;;;;;4827549;29;20108;-74
2021/01/19 12:48:33;;;;;;;31.88;22.05;;;7.60;96.70;;;;;;4841283;29;20125;-72
2021/01/19 12:51:05;;;;;;;22.92;16.95;;;7.50;96.70;;;;;;4817399;29;20367;-73
2021/01/19 12:53:33;;;;;;;20.92;15.05;;;7.50;96.70;;;;;;4826876;29;20400;-74
2021/01/19 12:56:01;;;;;;;19.63;14.73;;;7.50;96.70;;;;;;4829330;29;20409;-73
2021/01/19 12:58:31;;;;;;;20.10;14.00;;;7.50;96.70;;;;;;4827026;29;20142;-74